Proud — 9HWA9 — position and weather

sailwx.info

Track history (hours):
 
Tides and Currents Weather Stations Pressure Air Temp Water Temp Dewpoint Dewpoint Depression Visibility Wind Speed Wind Dir Waves Ship Positions

Proud

Last reported at 2016-Oct-01 04:34 UTC. Time now 2016-Oct-01 15:35 UTC.
Position N 31°36' E 121°18'.

Length 292 m; draft 10.7 m.

Type: Cargo ship. MMSI: 249619000.

Date/timePositionNaut miles runAvg speedWind from/ knotsBaromVisibWave heightAir tempDewpointWater temp
2016-Oct-01 04:34N 31°36' E 121°18'1 0.9
2016-Oct-01 03:27N 31°35' E 121°19'0 0.1
2016-Oct-01 00:33N 31°35' E 121°19'0 0.0
2016-Sep-30 22:33N 31°35' E 121°19'0 0.0
2016-Sep-30 20:30N 31°35' E 121°19'0 0.1
2016-Sep-30 17:33N 31°35' E 121°19'0 0.0
2016-Sep-30 16:33N 31°35' E 121°19'0 0.0
2016-Sep-30 14:33N 31°35' E 121°19'0 0.3
2016-Sep-30 13:33N 31°35' E 121°19'0 0.0
2016-Sep-30 10:30N 31°35' E 121°19'0 0.0
2016-Sep-30 08:33N 31°35' E 121°19'0 0.1
2016-Sep-30 06:30N 31°35' E 121°19'16 5.6
2016-Sep-30 03:32N 31°24' E 121°33'112 2.6
2016-Sep-28 08:33N 29°42' E 122°27'31 6.1
2016-Sep-28 03:27N 30°02' E 121°59'0 0.0
2016-Sep-28 02:33N 30°02' E 121°59'0 0.0
2016-Sep-28 01:33N 30°02' E 121°59'0 0.0
2016-Sep-27 23:09N 30°02' E 121°59'0 0.0
2016-Sep-27 19:15N 30°02' E 121°59'0 0.0
2016-Sep-27 14:33N 30°02' E 121°59'0 0.0
2016-Sep-27 13:33N 30°02' E 121°59'0 0.0
2016-Sep-27 00:27N 30°02' E 121°59'0 0.0
2016-Sep-26 20:09N 30°02' E 121°59'0 0.0
2016-Sep-26 19:33N 30°02' E 121°59'0 0.0
2016-Sep-26 15:33N 30°02' E 121°59'0 0.0
2016-Sep-26 13:33N 30°02' E 121°59'0 0.0
2016-Sep-26 11:21N 30°02' E 121°59'0 0.0
2016-Sep-26 08:33N 30°02' E 121°59'11 1.8
2016-Sep-26 02:33N 29°55' E 122°09'10 9.7
2016-Sep-26 01:33N 29°48' E 122°16'9 8.3
2016-Sep-26 00:30N 29°43' E 122°24'  
Track history (hours):
 
Tides and Currents Weather Stations Pressure Air Temp Water Temp Dewpoint Dewpoint Depression Visibility Wind Speed Wind Dir Waves Ship Positions

Proud

Last reported at 2016-Oct-01 04:34 UTC. Time now 2016-Oct-01 15:35 UTC.
Position N 31°36' E 121°18'.

Length 292 m; draft 10.7 m.

Type: Cargo ship. MMSI: 249619000.

Date/timePositionNaut miles runAvg speedWind from/ knotsBaromVisibWave heightAir tempDewpointWater temp
2016-Oct-01 04:34N 31°36' E 121°18'1 0.9
2016-Oct-01 03:27N 31°35' E 121°19'0 0.1
2016-Oct-01 00:33N 31°35' E 121°19'0 0.0
2016-Sep-30 22:33N 31°35' E 121°19'0 0.0
2016-Sep-30 20:30N 31°35' E 121°19'0 0.1
2016-Sep-30 17:33N 31°35' E 121°19'0 0.0
2016-Sep-30 16:33N 31°35' E 121°19'0 0.0
2016-Sep-30 14:33N 31°35' E 121°19'0 0.3
2016-Sep-30 13:33N 31°35' E 121°19'0 0.0
2016-Sep-30 10:30N 31°35' E 121°19'0 0.0
2016-Sep-30 08:33N 31°35' E 121°19'0 0.1
2016-Sep-30 06:30N 31°35' E 121°19'16 5.6
2016-Sep-30 03:32N 31°24' E 121°33'112 2.6
2016-Sep-28 08:33N 29°42' E 122°27'31 6.1
2016-Sep-28 03:27N 30°02' E 121°59'0 0.0
2016-Sep-28 02:33N 30°02' E 121°59'0 0.0
2016-Sep-28 01:33N 30°02' E 121°59'0 0.0
2016-Sep-27 23:09N 30°02' E 121°59'0 0.0
2016-Sep-27 19:15N 30°02' E 121°59'0 0.0
2016-Sep-27 14:33N 30°02' E 121°59'0 0.0
2016-Sep-27 13:33N 30°02' E 121°59'0 0.0
2016-Sep-27 00:27N 30°02' E 121°59'0 0.0
2016-Sep-26 20:09N 30°02' E 121°59'0 0.0
2016-Sep-26 19:33N 30°02' E 121°59'0 0.0
2016-Sep-26 15:33N 30°02' E 121°59'0 0.0
2016-Sep-26 13:33N 30°02' E 121°59'0 0.0
2016-Sep-26 11:21N 30°02' E 121°59'0 0.0
2016-Sep-26 08:33N 30°02' E 121°59'11 1.8
2016-Sep-26 02:33N 29°55' E 122°09'10 9.7
2016-Sep-26 01:33N 29°48' E 122°16'9 8.3
2016-Sep-26 00:30N 29°43' E 122°24'  

Dump ship's entire track history